createdAt,value
2019-04-20T00:04:33.879Z,15.40
2019-04-20T00:09:38.701Z,16.00
2019-04-20T00:14:42.488Z,14.98
2019-04-20T00:19:54.207Z,13.68
2019-04-20T00:25:06.601Z,14.05
2019-04-20T00:30:32.492Z,13.15
2019-04-20T00:35:14.735Z,14.45
2019-04-20T00:40:19.579Z,17.48
2019-04-20T00:45:29.520Z,18.42
2019-04-20T00:50:44.447Z,17.37
2019-04-20T00:55:38.038Z,16.42
2019-04-20T01:01:07.283Z,19.02
2019-04-20T01:06:12.063Z,18.60
2019-04-20T01:10:58.232Z,17.90
2019-04-20T01:16:08.481Z,19.87
2019-04-20T01:21:14.045Z,20.72
2019-04-20T01:26:20.821Z,19.92
2019-04-20T01:31:33.647Z,21.17
2019-04-20T01:36:52.001Z,20.35
2019-04-20T01:41:39.308Z,17.90
2019-04-20T01:46:53.522Z,18.92
2019-04-20T01:52:03.829Z,18.42
2019-04-20T01:57:24.859Z,18.25
2019-04-20T02:02:27.717Z,18.23
2019-04-20T02:07:38.979Z,17.95
2019-04-20T02:12:40.874Z,19.00
2019-04-20T02:17:59.724Z,17.85
2019-04-20T02:23:06.797Z,19.35
2019-04-20T02:28:14.623Z,18.00
2019-04-20T02:33:45.025Z,17.87
2019-04-20T02:54:19.021Z,19.75
2019-04-20T02:59:54.064Z,20.62
2019-04-20T03:04:06.994Z,21.10
2019-04-20T03:09:32.445Z,19.87
2019-04-20T03:14:30.309Z,19.07
2019-04-20T03:19:38.569Z,22.22
2019-04-20T03:24:54.402Z,22.73
2019-04-20T03:29:56.624Z,24.00
2019-04-20T03:40:10.358Z,25.45
2019-04-20T03:45:07.585Z,24.02
2019-04-20T03:50:30.981Z,21.68
2019-04-20T03:55:40.841Z,22.77
2019-04-20T04:00:55.468Z,24.70
2019-04-20T04:06:08.363Z,25.02
2019-04-20T04:11:27.614Z,24.65
2019-04-20T04:16:18.169Z,25.20
2019-04-20T04:21:37.120Z,25.08
2019-04-20T04:26:49.954Z,24.55
2019-04-20T04:32:07.856Z,20.57
2019-04-20T04:37:10.646Z,22.07
2019-04-20T04:42:38.486Z,20.75
2019-04-20T04:47:08.035Z,19.32
2019-04-20T04:52:15.927Z,15.78
2019-04-20T04:57:18.252Z,14.95
2019-04-20T05:02:29.796Z,14.30
2019-04-20T05:07:47.597Z,13.90
2019-04-20T05:18:07.227Z,15.20
2019-04-20T05:23:13.023Z,14.55
2019-04-20T05:28:20.447Z,17.85
2019-04-20T05:33:27.053Z,17.50
2019-04-20T05:43:47.274Z,17.40
2019-04-20T05:48:56.167Z,19.98
2019-04-20T05:54:02.636Z,15.80
2019-04-20T05:59:09.785Z,17.15
2019-04-20T06:04:17.442Z,16.20
2019-04-20T06:09:42.248Z,16.05
2019-04-20T06:14:47.024Z,16.50
2019-04-20T06:20:02.331Z,16.37
2019-04-20T06:25:33.555Z,15.58
2019-04-20T06:30:13.685Z,15.65
2019-04-20T06:35:48.154Z,16.80
2019-04-20T06:41:00.859Z,14.45
2019-04-20T06:45:55.127Z,14.15
2019-04-20T06:50:46.541Z,13.95
2019-04-20T06:55:57.311Z,13.70
2019-04-20T07:01:06.570Z,10.70
2019-04-20T07:06:29.333Z,11.12
2019-04-20T07:11:18.907Z,10.05
2019-04-20T07:16:40.792Z,11.60
2019-04-20T07:27:04.675Z,10.10
2019-04-20T07:32:03.107Z,9.50
2019-04-20T07:37:43.294Z,9.50
2019-04-20T07:42:29.032Z,9.75
2019-04-20T07:47:38.057Z,9.10
2019-04-20T07:52:14.426Z,10.48
2019-04-20T07:57:35.036Z,7.95
2019-04-20T08:03:12.905Z,9.00
2019-04-20T08:08:10.608Z,10.98
2019-04-20T08:13:29.211Z,9.53
2019-04-20T08:23:32.077Z,12.70
2019-04-20T08:28:35.883Z,11.25
2019-04-20T08:34:07.676Z,8.30
2019-04-20T08:44:32.394Z,8.55
2019-04-20T08:49:22.144Z,6.67
2019-04-20T08:54:19.266Z,7.75
2019-04-20T08:59:09.376Z,7.75
2019-04-20T09:04:22.002Z,7.47
2019-04-20T09:09:58.169Z,7.42
2019-04-20T09:14:28.381Z,6.78
2019-04-20T09:19:45.437Z,7.05
2019-04-20T09:24:57.867Z,6.92
2019-04-20T09:30:05.869Z,7.95
2019-04-20T09:35:13.613Z,7.45
2019-04-20T09:40:21.327Z,7.05
2019-04-20T09:45:21.296Z,9.50
2019-04-20T09:50:35.986Z,6.40
2019-04-20T09:55:38.284Z,8.15
2019-04-20T10:00:56.837Z,7.05
2019-04-20T10:05:47.789Z,7.53
2019-04-20T10:10:52.927Z,7.60
2019-04-20T10:15:59.733Z,7.65
2019-04-20T10:21:05.561Z,8.00
2019-04-20T10:26:10.155Z,6.75
2019-04-20T10:31:14.861Z,6.65
2019-04-20T10:36:40.112Z,6.37
2019-04-20T10:41:52.596Z,5.78
2019-04-20T10:46:54.603Z,7.12
2019-04-20T10:51:59.908Z,6.72
2019-04-20T10:57:05.732Z,6.40
2019-04-20T11:02:11.972Z,5.70
2019-04-20T11:07:16.848Z,6.33
2019-04-20T11:12:22.143Z,7.28
2019-04-20T11:17:29.510Z,7.28
2019-04-20T11:22:34.754Z,6.37
2019-04-20T11:27:40.508Z,7.50
2019-04-20T11:32:46.303Z,6.60
2019-04-20T11:37:51.316Z,6.35
2019-04-20T11:42:57.441Z,6.53
2019-04-20T11:48:03.279Z,6.90
2019-04-20T11:53:09.174Z,6.77
2019-04-20T11:58:14.198Z,6.20
2019-04-20T12:03:28.276Z,6.20
2019-04-20T12:08:27.230Z,6.30
2019-04-20T12:13:31.924Z,6.40
2019-04-20T12:18:37.885Z,6.25
2019-04-20T12:23:42.473Z,6.05
2019-04-20T12:28:47.594Z,6.00
2019-04-20T12:33:52.606Z,5.90
2019-04-20T12:38:59.235Z,5.70
2019-04-20T12:44:03.982Z,6.12
2019-04-20T12:49:09.510Z,6.25
2019-04-20T12:54:14.588Z,5.92
2019-04-20T12:59:19.207Z,6.05
2019-04-20T13:04:24.716Z,5.92
2019-04-20T13:09:36.792Z,5.87
2019-04-20T13:15:00.549Z,5.78
2019-04-20T13:20:08.000Z,5.95
2019-04-20T13:30:32.249Z,7.60
2019-04-20T13:35:38.287Z,6.03
2019-04-20T13:40:43.966Z,5.60
2019-04-20T13:45:49.009Z,5.95
2019-04-20T13:50:54.016Z,6.83
2019-04-20T13:55:59.233Z,6.30
2019-04-20T14:01:06.179Z,5.87
2019-04-20T14:06:11.072Z,6.75
2019-04-20T14:11:15.764Z,6.05
2019-04-20T14:16:20.947Z,7.53
2019-04-20T14:21:26.075Z,6.95
2019-04-20T14:26:30.808Z,6.40
2019-04-20T14:31:35.366Z,5.87
2019-04-20T14:36:41.255Z,5.30
2019-04-20T14:41:46.563Z,5.60
2019-04-20T14:46:51.668Z,5.45
2019-04-20T14:51:58.157Z,6.03
2019-04-20T14:57:03.420Z,5.90
2019-04-20T15:02:10.535Z,5.80
2019-04-20T15:07:15.317Z,7.72
2019-04-20T15:12:21.275Z,6.87
2019-04-20T15:17:29.814Z,6.75
2019-04-20T15:22:36.223Z,6.25
2019-04-20T15:27:43.974Z,5.70
2019-04-20T15:32:47.412Z,6.17
2019-04-20T15:37:52.981Z,5.35
2019-04-20T15:43:06.465Z,7.15
2019-04-20T15:48:05.869Z,5.90
2019-04-20T15:53:11.386Z,6.05
2019-04-20T15:58:16.418Z,5.22
2019-04-20T16:03:32.923Z,6.12
2019-04-20T16:08:42.153Z,6.28
2019-04-20T16:13:50.379Z,5.65
2019-04-20T16:18:54.923Z,5.15
2019-04-20T16:24:04.496Z,4.70
2019-04-20T16:29:11.519Z,6.10
2019-04-20T16:34:17.137Z,5.78
2019-04-20T16:39:22.670Z,6.30
2019-04-20T16:44:27.465Z,6.05
2019-04-20T16:49:32.785Z,6.90
2019-04-20T16:54:37.669Z,7.47
2019-04-20T16:59:48.157Z,7.00
2019-04-20T17:04:51.511Z,8.55
2019-04-20T17:09:55.933Z,8.45
2019-04-20T17:15:01.409Z,7.75
2019-04-20T17:20:09.261Z,9.33
2019-04-20T17:25:16.305Z,9.38
2019-04-20T17:30:26.942Z,9.65
2019-04-20T17:35:41.509Z,8.73
2019-04-20T17:40:58.999Z,10.30
2019-04-20T17:45:55.966Z,12.68
2019-04-20T17:51:12.256Z,13.22
2019-04-20T17:56:01.650Z,12.80
2019-04-20T18:01:26.805Z,14.73
2019-04-20T18:06:44.095Z,15.57
2019-04-20T18:11:40.336Z,12.03
2019-04-20T18:17:03.479Z,13.05
2019-04-20T18:21:51.808Z,13.13
2019-04-20T18:27:14.092Z,11.93
2019-04-20T18:32:23.076Z,9.55
2019-04-20T18:37:28.823Z,8.93
2019-04-20T18:42:40.452Z,8.65
2019-04-20T18:47:59.992Z,8.10
2019-04-20T18:52:47.785Z,9.15
2019-04-20T18:57:53.083Z,9.03
2019-04-20T19:03:11.124Z,8.73
2019-04-20T19:08:09.561Z,9.80
2019-04-20T19:13:29.669Z,9.08
2019-04-20T19:18:45.257Z,9.45
2019-04-20T19:23:40.537Z,10.00
2019-04-20T19:28:48.104Z,9.45
2019-04-20T19:34:07.503Z,12.75
2019-04-20T19:39:10.986Z,9.08
2019-04-20T19:44:13.091Z,8.88
2019-04-20T19:49:19.630Z,10.40
2019-04-20T19:54:40.063Z,13.38
2019-04-20T19:59:38.713Z,13.20
2019-04-20T20:04:49.178Z,12.03
2019-04-20T20:09:56.568Z,12.37
2019-04-20T20:14:57.528Z,11.78
2019-04-20T20:20:25.138Z,11.93
2019-04-20T20:25:09.351Z,12.18
2019-04-20T20:30:23.044Z,12.23
2019-04-20T20:35:25.457Z,10.50
2019-04-20T20:40:32.807Z,13.30
2019-04-20T20:45:41.653Z,23.90
2019-04-20T20:50:58.756Z,27.02
2019-04-20T20:55:53.290Z,27.60
2019-04-20T21:01:03.413Z,24.20
2019-04-20T21:06:00.016Z,24.02
2019-04-20T21:11:11.546Z,23.73
2019-04-20T21:16:18.198Z,20.80
2019-04-20T21:21:32.442Z,21.10
2019-04-20T21:26:30.604Z,20.57
2019-04-20T21:31:31.427Z,22.20
2019-04-20T21:36:36.985Z,23.55
2019-04-20T21:41:51.233Z,23.90
2019-04-20T21:46:53.786Z,22.65
2019-04-20T21:52:01.287Z,21.68
2019-04-20T21:57:03.931Z,21.68
2019-04-20T22:02:17.210Z,23.50
2019-04-20T22:07:14.476Z,23.60
2019-04-20T22:12:20.240Z,22.42
2019-04-20T22:17:28.649Z,20.40
2019-04-20T22:22:49.416Z,20.72
2019-04-20T22:27:38.937Z,18.82
2019-04-20T22:32:46.984Z,16.82
2019-04-20T22:37:59.803Z,16.57
2019-04-20T22:43:04.329Z,16.90
2019-04-20T22:48:12.225Z,16.17
2019-04-20T22:53:33.795Z,16.90
2019-04-20T22:58:38.779Z,16.25
2019-04-20T23:03:31.163Z,15.95
2019-04-20T23:08:38.299Z,15.78
2019-04-20T23:13:46.579Z,14.87
2019-04-20T23:18:51.959Z,13.90
2019-04-20T23:24:02.687Z,12.23
2019-04-20T23:29:02.949Z,13.50
2019-04-20T23:34:15.309Z,13.98
2019-04-20T23:39:14.832Z,15.03
2019-04-20T23:44:40.047Z,15.38
2019-04-20T23:50:06.087Z,15.53
2019-04-20T23:54:59.102Z,14.78
2019-04-20T23:59:58.454Z,11.43
